sensor_id;sensor_type;location;lat;lon;timestamp;pressure;altitude;pressure_sealevel;temperature
23992;BMP280;12205;50.600;4.608;2023-02-28T00:01:32;101479.59;;;1.13
23992;BMP280;12205;50.600;4.608;2023-02-28T00:03:59;101474.31;;;1.13
23992;BMP280;12205;50.600;4.608;2023-02-28T00:06:26;101481.44;;;1.12
23992;BMP280;12205;50.600;4.608;2023-02-28T00:08:53;101470.34;;;1.10
23992;BMP280;12205;50.600;4.608;2023-02-28T00:11:20;101481.13;;;1.09
23992;BMP280;12205;50.600;4.608;2023-02-28T00:13:47;101477.97;;;1.07
23992;BMP280;12205;50.600;4.608;2023-02-28T00:16:16;101474.00;;;1.04
23992;BMP280;12205;50.600;4.608;2023-02-28T00:18:45;101479.78;;;1.01
23992;BMP280;12205;50.600;4.608;2023-02-28T00:21:13;101476.59;;;0.99
23992;BMP280;12205;50.600;4.608;2023-02-28T00:23:40;101485.25;;;0.94
23992;BMP280;12205;50.600;4.608;2023-02-28T00:26:06;101478.66;;;0.92
23992;BMP280;12205;50.600;4.608;2023-02-28T00:28:33;101486.00;;;0.90
23992;BMP280;12205;50.600;4.608;2023-02-28T00:31:00;101478.59;;;0.87
23992;BMP280;12205;50.600;4.608;2023-02-28T00:33:28;101482.28;;;0.85
23992;BMP280;12205;50.600;4.608;2023-02-28T00:36:05;101476.72;;;0.82
23992;BMP280;12205;50.600;4.608;2023-02-28T00:38:35;101482.78;;;0.82
23992;BMP280;12205;50.600;4.608;2023-02-28T00:41:02;101484.88;;;0.80
23992;BMP280;12205;50.600;4.608;2023-02-28T00:43:31;101485.38;;;0.77
23992;BMP280;12205;50.600;4.608;2023-02-28T00:45:58;101490.63;;;0.77
23992;BMP280;12205;50.600;4.608;2023-02-28T00:48:25;101485.88;;;0.74
23992;BMP280;12205;50.600;4.608;2023-02-28T00:50:52;101487.47;;;0.75
23992;BMP280;12205;50.600;4.608;2023-02-28T00:53:21;101479.81;;;0.74
23992;BMP280;12205;50.600;4.608;2023-02-28T00:55:48;101487.47;;;0.75
23992;BMP280;12205;50.600;4.608;2023-02-28T00:58:16;101479.81;;;0.74
23992;BMP280;12205;50.600;4.608;2023-02-28T01:00:42;101479.00;;;0.73
23992;BMP280;12205;50.600;4.608;2023-02-28T01:03:15;101485.88;;;0.74
23992;BMP280;12205;50.600;4.608;2023-02-28T01:05:42;101487.72;;;0.74
23992;BMP280;12205;50.600;4.608;2023-02-28T01:08:09;101482.72;;;0.72
23992;BMP280;12205;50.600;4.608;2023-02-28T01:10:37;101482.16;;;0.70
23992;BMP280;12205;50.600;4.608;2023-02-28T01:13:04;101478.44;;;0.66
23992;BMP280;12205;50.600;4.608;2023-02-28T01:15:31;101486.28;;;0.61
23992;BMP280;12205;50.600;4.608;2023-02-28T01:17:58;101486.28;;;0.61
23992;BMP280;12205;50.600;4.608;2023-02-28T01:20:25;101488.88;;;0.56
23992;BMP280;12205;50.600;4.608;2023-02-28T01:22:52;101486.50;;;0.54
23992;BMP280;12205;50.600;4.608;2023-02-28T01:25:19;101474.13;;;0.55
23992;BMP280;12205;50.600;4.608;2023-02-28T01:27:47;101476.75;;;0.55
23992;BMP280;12205;50.600;4.608;2023-02-28T01:30:14;101482.00;;;0.55
23992;BMP280;12205;50.600;4.608;2023-02-28T01:32:41;101476.75;;;0.55
23992;BMP280;12205;50.600;4.608;2023-02-28T01:35:08;101465.69;;;0.53
23992;BMP280;12205;50.600;4.608;2023-02-28T01:37:35;101473.03;;;0.50
23992;BMP280;12205;50.600;4.608;2023-02-28T01:40:03;101462.25;;;0.52
23992;BMP280;12205;50.600;4.608;2023-02-28T01:42:30;101463.84;;;0.53
23992;BMP280;12205;50.600;4.608;2023-02-28T01:45:07;101470.41;;;0.50
23992;BMP280;12205;50.600;4.608;2023-02-28T01:47:42;101467.25;;;0.48
23992;BMP280;12205;50.600;4.608;2023-02-28T01:50:13;101469.38;;;0.51
23992;BMP280;12205;50.600;4.608;2023-02-28T01:52:41;101474.63;;;0.51
23992;BMP280;12205;50.600;4.608;2023-02-28T01:55:11;101465.66;;;0.47
23992;BMP280;12205;50.600;4.608;2023-02-28T01:57:41;101472.44;;;0.43
23992;BMP280;12205;50.600;4.608;2023-02-28T02:00:12;101468.22;;;0.42
23992;BMP280;12205;50.600;4.608;2023-02-28T02:02:47;101468.22;;;0.42
23992;BMP280;12205;50.600;4.608;2023-02-28T02:05:18;101459.28;;;0.43
23992;BMP280;12205;50.600;4.608;2023-02-28T02:07:48;101471.88;;;0.41
23992;BMP280;12205;50.600;4.608;2023-02-28T02:10:16;101463.47;;;0.39
23992;BMP280;12205;50.600;4.608;2023-02-28T02:13:00;101461.09;;;0.38
23992;BMP280;12205;50.600;4.608;2023-02-28T02:15:35;101456.63;;;0.38
23992;BMP280;12205;50.600;4.608;2023-02-28T02:18:09;101450.81;;;0.36
23992;BMP280;12205;50.600;4.608;2023-02-28T02:24:00;101461.88;;;0.38
23992;BMP280;12205;50.600;4.608;2023-02-28T02:26:55;101452.88;;;0.34
23992;BMP280;12205;50.600;4.608;2023-02-28T02:29:47;101460.78;;;0.34
23992;BMP280;12205;50.600;4.608;2023-02-28T02:33:03;101445.00;;;0.34
23992;BMP280;12205;50.600;4.608;2023-02-28T02:35:35;101449.19;;;0.30
23992;BMP280;12205;50.600;4.608;2023-02-28T02:38:08;101444.97;;;0.29
23992;BMP280;12205;50.600;4.608;2023-02-28T02:40:40;101444.44;;;0.27
23992;BMP280;12205;50.600;4.608;2023-02-28T02:43:15;101442.84;;;0.26
23992;BMP280;12205;50.600;4.608;2023-02-28T02:45:46;101434.72;;;0.27
23992;BMP280;12205;50.600;4.608;2023-02-28T02:48:17;101433.91;;;0.27
23992;BMP280;12205;50.600;4.608;2023-02-28T02:50:49;101431.53;;;0.25
23992;BMP280;12205;50.600;4.608;2023-02-28T02:53:19;101433.13;;;0.26
23992;BMP280;12205;50.600;4.608;2023-02-28T02:55:51;101432.84;;;0.23
23992;BMP280;12205;50.600;4.608;2023-02-28T02:58:25;101433.38;;;0.25
23992;BMP280;12205;50.600;4.608;2023-02-28T03:00:57;101432.84;;;0.23
23992;BMP280;12205;50.600;4.608;2023-02-28T03:03:25;101436.50;;;0.22
23992;BMP280;12205;50.600;4.608;2023-02-28T03:05:58;101437.50;;;0.15
23992;BMP280;12205;50.600;4.608;2023-02-28T03:08:26;101436.69;;;0.15
23992;BMP280;12205;50.600;4.608;2023-02-28T03:10:57;101443.78;;;0.14
23992;BMP280;12205;50.600;4.608;2023-02-28T03:13:38;101437.97;;;0.12
23992;BMP280;12205;50.600;4.608;2023-02-28T03:22:14;101442.38;;;0.07
23992;BMP280;12205;50.600;4.608;2023-02-28T03:24:44;101435.00;;;0.04
23992;BMP280;12205;50.600;4.608;2023-02-28T03:27:18;101441.84;;;0.05
23992;BMP280;12205;50.600;4.608;2023-02-28T03:29:51;101436.59;;;0.05
23992;BMP280;12205;50.600;4.608;2023-02-28T03:32:24;101433.66;;;0.01
23992;BMP280;12205;50.600;4.608;2023-02-28T03:34:56;101443.13;;;0.02
23992;BMP280;12205;50.600;4.608;2023-02-28T03:37:29;101448.31;;;-0.03
23992;BMP280;12205;50.600;4.608;2023-02-28T03:40:01;101414.00;;;-0.19
23992;BMP280;12205;50.600;4.608;2023-02-28T03:42:34;101439.84;;;-0.10
23992;BMP280;12205;50.600;4.608;2023-02-28T03:45:04;101431.19;;;-0.11
23992;BMP280;12205;50.600;4.608;2023-02-28T03:47:37;101432.72;;;-0.15
23992;BMP280;12205;50.600;4.608;2023-02-28T03:50:08;101439.25;;;-0.18
23992;BMP280;12205;50.600;4.608;2023-02-28T03:52:42;101429.22;;;-0.21
23992;BMP280;12205;50.600;4.608;2023-02-28T03:55:13;101441.31;;;-0.20
23992;BMP280;12205;50.600;4.608;2023-02-28T03:57:50;101431.84;;;-0.21
23992;BMP280;12205;50.600;4.608;2023-02-28T04:00:21;101432.06;;;-0.22
23992;BMP280;12205;50.600;4.608;2023-02-28T04:02:51;101437.81;;;-0.25
23992;BMP280;12205;50.600;4.608;2023-02-28T04:05:18;101435.44;;;-0.27
23992;BMP280;12205;50.600;4.608;2023-02-28T04:07:47;101434.34;;;-0.31
23992;BMP280;12205;50.600;4.608;2023-02-28T04:10:14;101437.69;;;-0.36
23992;BMP280;12205;50.600;4.608;2023-02-28T04:12:42;101435.31;;;-0.37
23992;BMP280;12205;50.600;4.608;2023-02-28T04:15:09;101432.13;;;-0.39
23992;BMP280;12205;50.600;4.608;2023-02-28T04:17:36;101442.09;;;-0.41
23992;BMP280;12205;50.600;4.608;2023-02-28T04:20:04;101438.91;;;-0.43
23992;BMP280;12205;50.600;4.608;2023-02-28T04:22:35;101434.13;;;-0.46
23992;BMP280;12205;50.600;4.608;2023-02-28T04:25:05;101426.19;;;-0.52
23992;BMP280;12205;50.600;4.608;2023-02-28T04:27:32;101425.41;;;-0.52
23992;BMP280;12205;50.600;4.608;2023-02-28T04:29:59;101416.25;;;-0.49
23992;BMP280;12205;50.600;4.608;2023-02-28T04:32:26;101413.56;;;-0.55
23992;BMP280;12205;50.600;4.608;2023-02-28T04:34:53;101426.75;;;-0.49
23992;BMP280;12205;50.600;4.608;2023-02-28T04:37:20;101422.59;;;-0.45
23992;BMP280;12205;50.600;4.608;2023-02-28T04:39:53;101425.75;;;-0.43
23992;BMP280;12205;50.600;4.608;2023-02-28T04:42:21;101422.88;;;-0.42
23992;BMP280;12205;50.600;4.608;2023-02-28T04:44:48;101424.72;;;-0.42
23992;BMP280;12205;50.600;4.608;2023-02-28T04:47:15;101426.34;;;-0.41
23992;BMP280;12205;50.600;4.608;2023-02-28T04:49:42;101433.16;;;-0.40
23992;BMP280;12205;50.600;4.608;2023-02-28T04:52:09;101416.53;;;-0.46
23992;BMP280;12205;50.600;4.608;2023-02-28T04:54:36;101422.09;;;-0.42
23992;BMP280;12205;50.600;4.608;2023-02-28T04:57:04;101431.00;;;-0.43
23992;BMP280;12205;50.600;4.608;2023-02-28T04:59:32;101430.22;;;-0.44
23992;BMP280;12205;50.600;4.608;2023-02-28T05:01:59;101429.91;;;-0.47
23992;BMP280;12205;50.600;4.608;2023-02-28T05:04:32;101421.00;;;-0.46
23992;BMP280;12205;50.600;4.608;2023-02-28T05:07:00;101430.72;;;-0.47
23992;BMP280;12205;50.600;4.608;2023-02-28T05:09:27;101429.13;;;-0.48
23992;BMP280;12205;50.600;4.608;2023-02-28T05:11:54;101432.47;;;-0.53
23992;BMP280;12205;50.600;4.608;2023-02-28T05:14:21;101439.56;;;-0.53
23992;BMP280;12205;50.600;4.608;2023-02-28T05:16:49;101448.72;;;-0.56
23992;BMP280;12205;50.600;4.608;2023-02-28T05:19:16;101429.31;;;-0.55
23992;BMP280;12205;50.600;4.608;2023-02-28T05:21:49;101427.72;;;-0.56
23992;BMP280;12205;50.600;4.608;2023-02-28T05:24:17;101437.19;;;-0.55
23992;BMP280;12205;50.600;4.608;2023-02-28T05:26:49;101434.06;;;-0.52
23992;BMP280;12205;50.600;4.608;2023-02-28T05:29:17;101436.69;;;-0.52
23992;BMP280;12205;50.600;4.608;2023-02-28T05:31:45;101434.06;;;-0.52
23992;BMP280;12205;50.600;4.608;2023-02-28T05:34:13;101433.56;;;-0.48
23992;BMP280;12205;50.600;4.608;2023-02-28T05:36:41;101439.63;;;-0.48
23992;BMP280;12205;50.600;4.608;2023-02-28T05:39:08;101433.56;;;-0.48
23992;BMP280;12205;50.600;4.608;2023-02-28T05:41:39;101428.88;;;-0.46
23992;BMP280;12205;50.600;4.608;2023-02-28T05:44:07;101427.78;;;-0.51
23992;BMP280;12205;50.600;4.608;2023-02-28T05:46:34;101428.31;;;-0.48
23992;BMP280;12205;50.600;4.608;2023-02-28T05:49:01;101430.41;;;-0.51
23992;BMP280;12205;50.600;4.608;2023-02-28T05:51:30;101434.06;;;-0.52
23992;BMP280;12205;50.600;4.608;2023-02-28T05:53:59;101435.91;;;-0.52
23992;BMP280;12205;50.600;4.608;2023-02-28T05:56:26;101436.63;;;-0.57
23992;BMP280;12205;50.600;4.608;2023-02-28T05:58:53;101435.84;;;-0.57
23992;BMP280;12205;50.600;4.608;2023-02-28T06:01:23;101442.34;;;-0.60
23992;BMP280;12205;50.600;4.608;2023-02-28T06:03:50;101435.28;;;-0.59
23992;BMP280;12205;50.600;4.608;2023-02-28T06:06:17;101433.13;;;-0.62
23992;BMP280;12205;50.600;4.608;2023-02-28T06:08:46;101434.41;;;-0.65
23992;BMP280;12205;50.600;4.608;2023-02-28T06:11:13;101439.66;;;-0.65
23992;BMP280;12205;50.600;4.608;2023-02-28T06:13:40;101429.16;;;-0.65
23992;BMP280;12205;50.600;4.608;2023-02-28T06:16:08;101426.97;;;-0.73
23992;BMP280;12205;50.600;4.608;2023-02-28T06:18:35;101445.41;;;-0.68
23992;BMP280;12205;50.600;4.608;2023-02-28T06:21:03;101449.09;;;-0.69
23992;BMP280;12205;50.600;4.608;2023-02-28T06:23:30;101448.28;;;-0.70
23992;BMP280;12205;50.600;4.608;2023-02-28T06:25:58;101450.13;;;-0.70
23992;BMP280;12205;50.600;4.608;2023-02-28T06:28:25;101441.44;;;-0.71
23992;BMP280;12205;50.600;4.608;2023-02-28T06:30:52;101444.88;;;-0.70
23992;BMP280;12205;50.600;4.608;2023-02-28T06:33:19;101446.91;;;-0.72
23992;BMP280;12205;50.600;4.608;2023-02-28T06:35:47;101456.88;;;-0.74
23992;BMP280;12205;50.600;4.608;2023-02-28T06:38:14;101449.53;;;-0.72
23992;BMP280;12205;50.600;4.608;2023-02-28T06:40:41;101450.03;;;-0.75
23992;BMP280;12205;50.600;4.608;2023-02-28T06:43:10;101452.66;;;-0.75
23992;BMP280;12205;50.600;4.608;2023-02-28T06:45:41;101457.38;;;-0.77
23992;BMP280;12205;50.600;4.608;2023-02-28T06:48:09;101458.16;;;-0.77
23992;BMP280;12205;50.600;4.608;2023-02-28T06:50:36;101457.38;;;-0.77
23992;BMP280;12205;50.600;4.608;2023-02-28T06:53:03;101461.03;;;-0.78
23992;BMP280;12205;50.600;4.608;2023-02-28T06:55:30;101475.19;;;-0.79
23992;BMP280;12205;50.600;4.608;2023-02-28T06:57:57;101473.28;;;-0.84
23992;BMP280;12205;50.600;4.608;2023-02-28T07:00:25;101482.44;;;-0.87
23992;BMP280;12205;50.600;4.608;2023-02-28T07:02:52;101481.69;;;-0.82
23992;BMP280;12205;50.600;4.608;2023-02-28T07:05:21;101471.19;;;-0.82
23992;BMP280;12205;50.600;4.608;2023-02-28T07:07:48;101464.19;;;-0.76
23992;BMP280;12205;50.600;4.608;2023-02-28T07:10:15;101456.88;;;-0.74
23992;BMP280;12205;50.600;4.608;2023-02-28T07:12:42;101463.00;;;-0.69
23992;BMP280;12205;50.600;4.608;2023-02-28T07:15:10;101447.50;;;-0.70
23992;BMP280;12205;50.600;4.608;2023-02-28T07:17:38;101448.09;;;-0.63
23992;BMP280;12205;50.600;4.608;2023-02-28T07:20:06;101458.59;;;-0.63
23992;BMP280;12205;50.600;4.608;2023-02-28T07:22:33;101458.59;;;-0.63
23992;BMP280;12205;50.600;4.608;2023-02-28T07:25:00;101453.97;;;-0.56
23992;BMP280;12205;50.600;4.608;2023-02-28T07:27:27;101440.66;;;-0.49
23992;BMP280;12205;50.600;4.608;2023-02-28T07:29:54;101454.59;;;-0.48
23992;BMP280;12205;50.600;4.608;2023-02-28T07:32:21;101446.06;;;-0.39
23992;BMP280;12205;50.600;4.608;2023-02-28T07:34:50;101428.47;;;-0.38
23992;BMP280;12205;50.600;4.608;2023-02-28T07:37:17;101440.94;;;-0.28
23992;BMP280;12205;50.600;4.608;2023-02-28T07:39:44;101447.31;;;-0.24
23992;BMP280;12205;50.600;4.608;2023-02-28T07:42:11;101440.28;;;-0.19
23992;BMP280;12205;50.600;4.608;2023-02-28T07:44:39;101447.66;;;-0.15
23992;BMP280;12205;50.600;4.608;2023-02-28T07:47:07;101445.09;;;-0.10
23992;BMP280;12205;50.600;4.608;2023-02-28T07:49:35;101440.94;;;-0.06
23992;BMP280;12205;50.600;4.608;2023-02-28T07:52:03;101442.59;;;0.00
23992;BMP280;12205;50.600;4.608;2023-02-28T07:54:31;101450.00;;;0.03
23992;BMP280;12205;50.600;4.608;2023-02-28T07:56:58;101445.81;;;0.07
23992;BMP280;12205;50.600;4.608;2023-02-28T07:59:25;101448.50;;;0.12
23992;BMP280;12205;50.600;4.608;2023-02-28T08:01:51;101446.72;;;0.18
23992;BMP280;12205;50.600;4.608;2023-02-28T08:04:19;101451.78;;;0.25
23992;BMP280;12205;50.600;4.608;2023-02-28T08:06:45;101453.66;;;0.29
23992;BMP280;12205;50.600;4.608;2023-02-28T08:09:14;101467.63;;;0.35
23992;BMP280;12205;50.600;4.608;2023-02-28T08:11:41;101473.97;;;0.39
23992;BMP280;12205;50.600;4.608;2023-02-28T08:14:08;101485.09;;;0.46
23992;BMP280;12205;50.600;4.608;2023-02-28T08:16:35;101480.44;;;0.54
23992;BMP280;12205;50.600;4.608;2023-02-28T08:19:02;101496.22;;;0.54
23992;BMP280;12205;50.600;4.608;2023-02-28T08:21:29;101493.63;;;0.59
23992;BMP280;12205;50.600;4.608;2023-02-28T08:23:56;101500.28;;;0.66
23992;BMP280;12205;50.600;4.608;2023-02-28T08:26:25;101504.00;;;0.71
23992;BMP280;12205;50.600;4.608;2023-02-28T08:28:51;101501.16;;;0.77
23992;BMP280;12205;50.600;4.608;2023-02-28T08:31:19;101500.94;;;0.84
23992;BMP280;12205;50.600;4.608;2023-02-28T08:33:46;101512.09;;;0.91
23992;BMP280;12205;50.600;4.608;2023-02-28T08:36:14;101510.75;;;0.94
23992;BMP280;12205;50.600;4.608;2023-02-28T08:38:41;101524.47;;;0.96
23992;BMP280;12205;50.600;4.608;2023-02-28T08:41:10;101531.63;;;1.00
23992;BMP280;12205;50.600;4.608;2023-02-28T08:43:39;101524.81;;;1.05
23992;BMP280;12205;50.600;4.608;2023-02-28T08:46:08;101529.34;;;1.09
23992;BMP280;12205;50.600;4.608;2023-02-28T08:48:37;101529.63;;;1.13
23992;BMP280;12205;50.600;4.608;2023-02-28T08:51:06;101530.44;;;1.13
23992;BMP280;12205;50.600;4.608;2023-02-28T08:53:34;101537.56;;;1.18
23992;BMP280;12205;50.600;4.608;2023-02-28T08:56:04;101539.44;;;1.23
23992;BMP280;12205;50.600;4.608;2023-02-28T08:58:31;101528.13;;;1.22
23992;BMP280;12205;50.600;4.608;2023-02-28T09:01:06;101535.81;;;1.34
23992;BMP280;12205;50.600;4.608;2023-02-28T09:03:33;101540.84;;;1.41
23992;BMP280;12205;50.600;4.608;2023-02-28T09:06:01;101549.00;;;1.39
23992;BMP280;12205;50.600;4.608;2023-02-28T09:08:29;101538.47;;;1.39
23992;BMP280;12205;50.600;4.608;2023-02-28T09:10:57;101549.09;;;1.49
23992;BMP280;12205;50.600;4.608;2023-02-28T09:13:25;101551.25;;;1.58
23992;BMP280;12205;50.600;4.608;2023-02-28T09:15:52;101555.22;;;1.65
23992;BMP280;12205;50.600;4.608;2023-02-28T09:18:20;101553.41;;;1.71
23992;BMP280;12205;50.600;4.608;2023-02-28T09:20:47;101550.03;;;1.76
23992;BMP280;12205;50.600;4.608;2023-02-28T09:23:14;101555.09;;;1.82
23992;BMP280;12205;50.600;4.608;2023-02-28T09:25:45;101549.03;;;1.87
23992;BMP280;12205;50.600;4.608;2023-02-28T09:28:13;101554.56;;;1.91
23992;BMP280;12205;50.600;4.608;2023-02-28T09:30:41;101562.47;;;1.96
23992;BMP280;12205;50.600;4.608;2023-02-28T09:33:08;101554.06;;;1.99
23992;BMP280;12205;50.600;4.608;2023-02-28T09:35:37;101556.19;;;2.07
23992;BMP280;12205;50.600;4.608;2023-02-28T09:38:04;101561.50;;;2.12
23992;BMP280;12205;50.600;4.608;2023-02-28T09:40:36;101550.94;;;2.12
23992;BMP280;12205;50.600;4.608;2023-02-28T09:43:04;101553.63;;;2.17
23992;BMP280;12205;50.600;4.608;2023-02-28T09:45:33;101554.16;;;2.25
23992;BMP280;12205;50.600;4.608;2023-02-28T09:48:06;101557.09;;;2.28
23992;BMP280;12205;50.600;4.608;2023-02-28T09:50:40;101563.13;;;2.34
23992;BMP280;12205;50.600;4.608;2023-02-28T09:53:15;101562.91;;;2.40
23992;BMP280;12205;50.600;4.608;2023-02-28T09:55:48;101567.94;;;2.47
23992;BMP280;12205;50.600;4.608;2023-02-28T09:58:20;101563.72;;;2.51
23992;BMP280;12205;50.600;4.608;2023-02-28T10:00:51;101563.22;;;2.54
23992;BMP280;12205;50.600;4.608;2023-02-28T10:03:26;101569.56;;;2.58
23992;BMP280;12205;50.600;4.608;2023-02-28T10:05:59;101574.56;;;2.60
23992;BMP280;12205;50.600;4.608;2023-02-28T10:08:33;101573.22;;;2.68
23992;BMP280;12205;50.600;4.608;2023-02-28T10:11:11;101572.19;;;2.74
23992;BMP280;12205;50.600;4.608;2023-02-28T10:13:46;101569.56;;;2.79
23992;BMP280;12205;50.600;4.608;2023-02-28T10:16:21;101572.44;;;2.83
23992;BMP280;12205;50.600;4.608;2023-02-28T10:19:03;101570.38;;;2.85
23992;BMP280;12205;50.600;4.608;2023-02-28T10:21:36;101564.28;;;2.89
23992;BMP280;12205;50.600;4.608;2023-02-28T10:24:11;101574.31;;;2.98
23992;BMP280;12205;50.600;4.608;2023-02-28T10:26:43;101573.50;;;3.02
23992;BMP280;12205;50.600;4.608;2023-02-28T10:29:11;101565.59;;;3.07
23992;BMP280;12205;50.600;4.608;2023-02-28T10:31:39;101575.91;;;3.14
23992;BMP280;12205;50.600;4.608;2023-02-28T10:34:07;101574.84;;;3.20
23992;BMP280;12205;50.600;4.608;2023-02-28T10:36:35;101566.91;;;3.20
23992;BMP280;12205;50.600;4.608;2023-02-28T10:39:36;101557.41;;;3.24
23992;BMP280;12205;50.600;4.608;2023-02-28T10:42:03;101557.09;;;3.36
23992;BMP280;12205;50.600;4.608;2023-02-28T10:44:30;101562.38;;;3.41
23992;BMP280;12205;50.600;4.608;2023-02-28T10:46:58;101568.44;;;3.47
23992;BMP280;12205;50.600;4.608;2023-02-28T10:49:26;101558.66;;;3.53
23992;BMP280;12205;50.600;4.608;2023-02-28T10:51:57;101555.97;;;3.58
23992;BMP280;12205;50.600;4.608;2023-02-28T10:54:28;101553.34;;;3.58
23992;BMP280;12205;50.600;4.608;2023-02-28T10:57:07;101548.31;;;3.56
23992;BMP280;12205;50.600;4.608;2023-02-28T10:59:34;101551.47;;;3.58
23992;BMP280;12205;50.600;4.608;2023-02-28T11:02:02;101548.81;;;3.63
23992;BMP280;12205;50.600;4.608;2023-02-28T11:04:34;101550.16;;;3.66
23992;BMP280;12205;50.600;4.608;2023-02-28T11:07:06;101546.16;;;3.74
23992;BMP280;12205;50.600;4.608;2023-02-28T11:09:45;101547.19;;;3.78
23992;BMP280;12205;50.600;4.608;2023-02-28T11:12:20;101541.03;;;3.88
23992;BMP280;12205;50.600;4.608;2023-02-28T11:14:49;101530.16;;;4.00
23992;BMP280;12205;50.600;4.608;2023-02-28T11:17:20;101528.53;;;4.04
23992;BMP280;12205;50.600;4.608;2023-02-28T11:19:51;101531.16;;;4.09
23992;BMP280;12205;50.600;4.608;2023-02-28T11:22:22;101527.94;;;4.17
23992;BMP280;12205;50.600;4.608;2023-02-28T11:24:52;101541.09;;;4.22
23992;BMP280;12205;50.600;4.608;2023-02-28T11:27:43;101539.00;;;4.24
23992;BMP280;12205;50.600;4.608;2023-02-28T11:30:24;101534.97;;;4.32
23992;BMP280;12205;50.600;4.608;2023-02-28T11:32:52;101540.78;;;4.39
23992;BMP280;12205;50.600;4.608;2023-02-28T11:35:24;101530.91;;;4.50
23992;BMP280;12205;50.600;4.608;2023-02-28T11:37:53;101523.09;;;4.64
23992;BMP280;12205;50.600;4.608;2023-02-28T11:40:28;101521.97;;;4.70
23992;BMP280;12205;50.600;4.608;2023-02-28T11:43:13;101520.63;;;4.78
23992;BMP280;12205;50.600;4.608;2023-02-28T11:45:53;101521.06;;;4.85
23992;BMP280;12205;50.600;4.608;2023-02-28T11:48:27;101527.09;;;4.91
23992;BMP280;12205;50.600;4.608;2023-02-28T11:51:03;101527.34;;;4.94
23992;BMP280;12205;50.600;4.608;2023-02-28T11:53:50;101524.31;;;5.01
23992;BMP280;12205;50.600;4.608;2023-02-28T11:56:23;101521.06;;;5.09
23992;BMP280;12205;50.600;4.608;2023-02-28T11:59:00;101520.53;;;5.12
23992;BMP280;12205;50.600;4.608;2023-02-28T12:01:45;101514.88;;;5.19
23992;BMP280;12205;50.600;4.608;2023-02-28T12:04:24;101498.03;;;5.10
23992;BMP280;12205;50.600;4.608;2023-02-28T12:06:56;101504.28;;;5.19
23992;BMP280;12205;50.600;4.608;2023-02-28T12:09:40;101509.03;;;5.22
23992;BMP280;12205;50.600;4.608;2023-02-28T12:12:21;101508.63;;;5.10
23992;BMP280;12205;50.600;4.608;2023-02-28T12:15:05;101514.44;;;5.12
23992;BMP280;12205;50.600;4.608;2023-02-28T12:17:51;101507.78;;;5.14
23992;BMP280;12205;50.600;4.608;2023-02-28T12:20:27;101496.41;;;5.14
23992;BMP280;12205;50.600;4.608;2023-02-28T12:23:09;101503.16;;;5.25
23992;BMP280;12205;50.600;4.608;2023-02-28T12:25:53;101500.31;;;5.41
23992;BMP280;12205;50.600;4.608;2023-02-28T12:28:25;101498.84;;;5.53
23992;BMP280;12205;50.600;4.608;2023-02-28T12:30:58;101496.75;;;5.69
23992;BMP280;12205;50.600;4.608;2023-02-28T12:33:32;101487.47;;;5.91
23992;BMP280;12205;50.600;4.608;2023-02-28T12:36:04;101487.88;;;5.98
23992;BMP280;12205;50.600;4.608;2023-02-28T12:38:36;101490.44;;;6.03
23992;BMP280;12205;50.600;4.608;2023-02-28T12:41:10;101489.88;;;6.06
23992;BMP280;12205;50.600;4.608;2023-02-28T12:43:42;101488.28;;;6.05
23992;BMP280;12205;50.600;4.608;2023-02-28T12:46:12;101486.56;;;6.15
23992;BMP280;12205;50.600;4.608;2023-02-28T12:48:43;101488.50;;;6.42
23992;BMP280;12205;50.600;4.608;2023-02-28T12:51:12;101481.38;;;6.98
23992;BMP280;12205;50.600;4.608;2023-02-28T12:53:52;101477.47;;;7.82
23992;BMP280;12205;50.600;4.608;2023-02-28T12:56:32;101468.34;;;8.29
23992;BMP280;12205;50.600;4.608;2023-02-28T12:59:03;101470.25;;;8.37
23992;BMP280;12205;50.600;4.608;2023-02-28T13:01:42;101462.63;;;9.02
23992;BMP280;12205;50.600;4.608;2023-02-28T13:04:32;101456.38;;;9.67
23992;BMP280;12205;50.600;4.608;2023-02-28T13:07:34;101460.00;;;10.19
23992;BMP280;12205;50.600;4.608;2023-02-28T13:10:08;101457.66;;;10.77
23992;BMP280;12205;50.600;4.608;2023-02-28T13:12:47;101462.94;;;11.49
23992;BMP280;12205;50.600;4.608;2023-02-28T13:15:18;101458.84;;;12.09
23992;BMP280;12205;50.600;4.608;2023-02-28T13:17:49;101457.84;;;12.92
23992;BMP280;12205;50.600;4.608;2023-02-28T13:20:19;101464.53;;;13.70
23992;BMP280;12205;50.600;4.608;2023-02-28T13:22:47;101462.22;;;14.55
23992;BMP280;12205;50.600;4.608;2023-02-28T13:34:41;101453.00;;;16.68
23992;BMP280;12205;50.600;4.608;2023-02-28T13:37:34;101464.91;;;17.01
23992;BMP280;12205;50.600;4.608;2023-02-28T13:40:30;101446.09;;;17.63
23992;BMP280;12205;50.600;4.608;2023-02-28T13:43:02;101441.66;;;17.89
23992;BMP280;12205;50.600;4.608;2023-02-28T13:45:30;101448.19;;;17.81
23992;BMP280;12205;50.600;4.608;2023-02-28T13:48:04;101444.69;;;17.77
23992;BMP280;12205;50.600;4.608;2023-02-28T13:50:43;101440.25;;;18.20
23992;BMP280;12205;50.600;4.608;2023-02-28T13:53:33;101439.59;;;18.56
23992;BMP280;12205;50.600;4.608;2023-02-28T13:56:09;101443.09;;;18.53
23992;BMP280;12205;50.600;4.608;2023-02-28T13:58:53;101448.00;;;18.22
23992;BMP280;12205;50.600;4.608;2023-02-28T14:01:31;101439.56;;;18.41
23992;BMP280;12205;50.600;4.608;2023-02-28T14:04:30;101440.75;;;18.51
23992;BMP280;12205;50.600;4.608;2023-02-28T14:07:06;101430.38;;;19.07
23992;BMP280;12205;50.600;4.608;2023-02-28T14:09:35;101432.31;;;19.35
23992;BMP280;12205;50.600;4.608;2023-02-28T14:15:26;101420.31;;;19.18
23992;BMP280;12205;50.600;4.608;2023-02-28T14:17:54;101426.50;;;19.48
23992;BMP280;12205;50.600;4.608;2023-02-28T14:20:22;101433.50;;;19.34
23992;BMP280;12205;50.600;4.608;2023-02-28T14:22:57;101422.59;;;19.52
23992;BMP280;12205;50.600;4.608;2023-02-28T14:25:34;101434.19;;;19.67
23992;BMP280;12205;50.600;4.608;2023-02-28T14:28:10;101418.78;;;19.39
23992;BMP280;12205;50.600;4.608;2023-02-28T14:31:01;101427.28;;;19.55
23992;BMP280;12205;50.600;4.608;2023-02-28T14:33:54;101423.00;;;19.61
23992;BMP280;12205;50.600;4.608;2023-02-28T14:36:27;101424.50;;;19.73
23992;BMP280;12205;50.600;4.608;2023-02-28T14:39:01;101427.63;;;19.64
23992;BMP280;12205;50.600;4.608;2023-02-28T14:41:33;101417.91;;;19.78
23992;BMP280;12205;50.600;4.608;2023-02-28T14:44:13;101432.59;;;19.91
23992;BMP280;12205;50.600;4.608;2023-02-28T14:46:42;101431.03;;;19.90
23992;BMP280;12205;50.600;4.608;2023-02-28T14:49:16;101433.28;;;20.10